Time;durP1;ratioP1;P1;durP2;ratioP2;P2;SDS_P1;SDS_P2;PMS_P1;PMS_P2;Temp;Humidity;BMP_temperature;BMP_pressure;BME280_temperature;BME280_humidity;BME280_pressure;Samples;Min_cycle;Max_cycle;Signal;HPM_P1;HPM_P2
2024/01/29 00:01:02;;;;;;;1.27;1.20;;;;;;;5.85;62.43;102522.13;5047021;27;20123;-79
2024/01/29 00:03:28;;;;;;;3.50;1.33;;;;;;;5.89;62.03;102519.59;5048398;28;20022;-79
2024/01/29 00:05:54;;;;;;;0.17;0.17;;;;;;;5.90;62.29;102512.63;5049967;28;20089;-79
2024/01/29 00:08:20;;;;;;;0.30;0.30;;;;;;;5.89;62.27;102524.88;5053767;28;20036;-78
2024/01/29 00:10:46;;;;;;;0.20;0.20;;;;;;;5.93;62.39;102521.50;5053137;28;20037;-78
2024/01/29 00:13:13;;;;;;;0.15;0.15;;;;;;;5.97;62.19;102533.00;5052953;28;20495;-78
2024/01/29 00:15:39;;;;;;;0.90;0.90;;;;;;;5.99;61.79;102532.22;5053875;28;20032;-78
2024/01/29 00:18:05;;;;;;;0.20;0.20;;;;;;;6.00;62.03;102522.56;5048400;28;20037;-78
2024/01/29 00:20:31;;;;;;;0.20;0.20;;;;;;;6.02;61.99;102519.97;5052107;28;20021;-77
2024/01/29 00:22:57;;;;;;;0.20;0.20;;;;;;;6.02;61.82;102525.22;5047107;28;20041;-78
2024/01/29 00:25:23;;;;;;;0.10;0.10;;;;;;;6.03;61.77;102535.81;5051919;28;20391;-77
2024/01/29 00:27:50;;;;;;;0.10;0.10;;;;;;;6.04;61.76;102526.16;5053564;28;20040;-79
2024/01/29 00:30:16;;;;;;;0.20;0.20;;;;;;;6.01;61.82;102513.81;5053164;28;20539;-77
2024/01/29 00:32:42;;;;;;;0.10;0.10;;;;;;;6.02;61.76;102512.97;5047815;28;20499;-79
2024/01/29 00:35:08;;;;;;;0.45;0.45;;;;;;;6.01;61.71;102503.31;5051931;28;20021;-79
2024/01/29 00:37:35;;;;;;;0.30;0.30;;;;;;;5.97;61.69;102509.31;5053237;28;20029;-78
2024/01/29 00:40:02;;;;;;;0.20;0.20;;;;;;;5.90;61.83;102518.75;5055324;28;20033;-78
2024/01/29 00:42:28;;;;;;;0.10;0.10;;;;;;;5.95;61.86;102524.16;5047856;28;20029;-78
2024/01/29 00:44:54;;;;;;;0.20;0.20;;;;;;;5.90;62.12;102520.50;5052164;27;20040;-77
2024/01/29 00:47:20;;;;;;;0.15;0.15;;;;;;;5.87;62.20;102521.31;5048359;28;20582;-78
2024/01/29 00:49:47;;;;;;;0.20;0.20;;;;;;;5.87;62.26;102530.94;5053963;27;20094;-78
2024/01/29 00:52:13;;;;;;;0.10;0.10;;;;;;;5.86;62.17;102529.16;5054069;28;20032;-79
2024/01/29 00:54:40;;;;;;;0.52;0.52;;;;;;;5.87;62.29;102536.19;5055662;28;20042;-78
2024/01/29 00:57:06;;;;;;;0.50;0.50;;;;;;;5.87;62.06;102539.75;5054411;28;20017;-78
2024/01/29 00:59:32;;;;;;;0.10;0.10;;;;;;;5.89;62.01;102545.03;5055311;28;20116;-78
2024/01/29 01:01:58;;;;;;;0.10;0.10;;;;;;;5.85;62.23;102538.78;5064034;27;20112;-78
2024/01/29 01:04:24;;;;;;;0.47;0.47;;;;;;;5.87;62.21;102541.47;5045909;27;20029;-78
2024/01/29 01:06:51;;;;;;;0.25;0.25;;;;;;;5.85;62.12;102543.19;5053321;28;20035;-78
2024/01/29 01:09:18;;;;;;;0.20;0.20;;;;;;;5.87;62.12;102541.47;5055446;28;20040;-79
2024/01/29 01:11:44;;;;;;;0.10;0.10;;;;;;;5.87;61.90;102544.09;5049937;28;20078;-78
2024/01/29 01:14:11;;;;;;;0.43;0.43;;;;;;;5.84;61.94;102547.53;5054265;28;20088;-80
2024/01/29 01:16:37;;;;;;;0.20;0.20;;;;;;;5.82;61.93;102555.38;5056677;28;20033;-80
2024/01/29 01:19:03;;;;;;;1.20;0.52;;;;;;;5.78;62.13;102542.09;5058303;28;20045;-79
2024/01/29 01:21:29;;;;;;;0.10;0.10;;;;;;;5.77;62.12;102549.13;5059468;28;20096;-78
2024/01/29 01:23:55;;;;;;;0.93;0.60;;;;;;;5.74;62.17;102548.13;5061224;27;20055;-79
2024/01/29 01:26:21;;;;;;;0.20;0.20;;;;;;;5.71;62.04;102550.66;5061680;28;20043;-78
2024/01/29 01:28:48;;;;;;;0.10;0.10;;;;;;;5.70;61.96;102549.78;5067835;27;20033;-79
2024/01/29 01:31:14;;;;;;;0.10;0.10;;;;;;;5.65;62.33;102540.88;5062371;27;20021;-83
2024/01/29 01:33:40;;;;;;;0.55;0.55;;;;;;;5.66;62.56;102542.69;5064901;27;20043;-78
2024/01/29 01:36:06;;;;;;;0.17;0.17;;;;;;;5.64;62.38;102529.47;5064321;28;20104;-78
2024/01/29 01:38:33;;;;;;;0.75;0.57;;;;;;;5.63;62.51;102543.47;5063004;28;20113;-80
2024/01/29 01:40:59;;;;;;;0.30;0.30;;;;;;;5.61;62.51;102539.91;5055577;28;20036;-80
2024/01/29 01:43:25;;;;;;;0.15;0.15;;;;;;;5.59;62.76;102546.84;5055329;28;20112;-80
2024/01/29 01:48:42;;;;;;;0.20;0.20;;;;;;;5.60;62.50;102547.75;5118147;27;20395;-80
2024/01/29 01:51:09;;;;;;;0.10;0.10;;;;;;;5.57;62.56;102553.81;5117974;28;20396;-80
2024/01/29 01:53:38;;;;;;;0.10;0.10;;;;;;;5.56;62.87;102548.50;5105959;28;20024;-80
2024/01/29 01:56:06;;;;;;;0.65;0.65;;;;;;;5.55;62.72;102539.72;5095310;28;20028;-81
2024/01/29 01:58:34;;;;;;;0.10;0.10;;;;;;;5.53;62.81;102540.53;5095186;28;20032;-80
2024/01/29 02:01:00;;;;;;;0.20;0.20;;;;;;;5.49;62.80;102536.94;5089742;28;20066;-78
2024/01/29 02:03:28;;;;;;;0.25;0.25;;;;;;;5.48;62.71;102533.44;5090536;28;20029;-80
2024/01/29 02:05:55;;;;;;;0.10;0.10;;;;;;;5.44;63.08;102547.31;5091329;28;20032;-79
2024/01/29 02:08:22;;;;;;;0.95;0.95;;;;;;;5.41;63.01;102541.06;5093492;28;20024;-79
2024/01/29 02:10:50;;;;;;;0.17;0.17;;;;;;;5.40;63.25;102540.19;5093777;28;20020;-79
2024/01/29 02:13:16;;;;;;;0.10;0.10;;;;;;;5.39;63.00;102543.66;5091173;28;20460;-79
2024/01/29 02:15:43;;;;;;;0.10;0.10;;;;;;;5.38;63.03;102539.25;5090125;28;20417;-79
2024/01/29 02:18:09;;;;;;;0.20;0.20;;;;;;;5.37;63.01;102540.13;5096578;28;20406;-78
2024/01/29 02:20:36;;;;;;;0.10;0.10;;;;;;;5.35;62.96;102542.69;5094587;28;20033;-78
2024/01/29 02:23:03;;;;;;;0.10;0.10;;;;;;;5.34;63.09;102542.63;5099191;28;20056;-78
2024/01/29 02:25:29;;;;;;;0.10;0.10;;;;;;;5.31;62.96;102537.31;5090010;28;20042;-78
2024/01/29 02:27:56;;;;;;;0.20;0.20;;;;;;;5.29;62.84;102541.63;5094549;28;20028;-78
2024/01/29 02:30:22;;;;;;;0.10;0.10;;;;;;;5.27;63.17;102538.03;5089109;28;20624;-80
2024/01/29 02:32:48;;;;;;;0.20;0.20;;;;;;;5.25;63.26;102537.13;5097967;28;20133;-79
2024/01/29 02:35:14;;;;;;;0.10;0.10;;;;;;;5.23;63.12;102537.06;5097523;28;20036;-78
2024/01/29 02:37:41;;;;;;;0.10;0.10;;;;;;;5.21;63.08;102546.66;5093815;28;20031;-80
2024/01/29 02:40:08;;;;;;;0.20;0.20;;;;;;;5.21;63.06;102558.88;5087225;28;20032;-80
2024/01/29 02:42:34;;;;;;;0.10;0.10;;;;;;;5.18;63.07;102555.34;5085405;28;20039;-79
2024/01/29 02:45:00;;;;;;;0.20;0.20;;;;;;;5.16;63.28;102551.78;5088505;28;20031;-80
2024/01/29 02:47:27;;;;;;;0.10;0.10;;;;;;;5.15;63.42;102549.97;5092788;28;20097;-80
2024/01/29 02:49:53;;;;;;;2.58;2.38;;;;;;;5.14;63.44;102548.19;5090041;28;20052;-80
2024/01/29 02:52:20;;;;;;;0.20;0.20;;;;;;;5.14;63.29;102556.06;5090449;28;20024;-79
2024/01/29 02:54:47;;;;;;;0.13;0.13;;;;;;;5.14;63.60;102555.19;5090039;28;20612;-80
2024/01/29 02:57:13;;;;;;;0.82;0.82;;;;;;;5.14;63.42;102558.69;5090750;28;20029;-79
2024/01/29 02:59:39;;;;;;;0.13;0.13;;;;;;;5.13;63.45;102556.91;5075455;28;20032;-79
2024/01/29 03:02:07;;;;;;;0.20;0.20;;;;;;;5.13;63.53;102556.03;5078488;28;20033;-79
2024/01/29 03:04:33;;;;;;;0.10;0.10;;;;;;;5.11;63.37;102558.63;5075208;28;20067;-79
2024/01/29 03:06:59;;;;;;;0.20;0.20;;;;;;;5.11;63.93;102563.88;5077417;28;20031;-80
2024/01/29 03:09:25;;;;;;;0.15;0.15;;;;;;;5.11;63.60;102566.50;5073458;28;20115;-79
2024/01/29 03:11:52;;;;;;;0.20;0.20;;;;;;;5.09;63.88;102570.81;5076989;28;20029;-80
2024/01/29 03:14:18;;;;;;;0.20;0.20;;;;;;;5.10;63.78;102577.84;5078428;28;20031;-80
2024/01/29 03:16:44;;;;;;;0.32;0.32;;;;;;;5.08;63.68;102579.53;5077139;28;20021;-81
2024/01/29 03:19:10;;;;;;;0.20;0.20;;;;;;;5.09;63.74;102580.44;5078552;28;20032;-79
2024/01/29 03:21:36;;;;;;;0.15;0.15;;;;;;;5.07;63.58;102588.28;5078263;28;20390;-82
2024/01/29 03:24:02;;;;;;;0.20;0.20;;;;;;;5.04;63.56;102590.81;5073646;28;20032;-79
2024/01/29 03:26:29;;;;;;;0.15;0.15;;;;;;;5.03;63.94;102596.91;5074927;28;20039;-80
2024/01/29 03:28:55;;;;;;;0.30;0.30;;;;;;;5.02;63.78;102584.59;5074696;28;20119;-81
2024/01/29 03:31:21;;;;;;;0.20;0.20;;;;;;;5.02;63.73;102584.59;5077967;28;20056;-80
2024/01/29 03:33:47;;;;;;;0.15;0.15;;;;;;;4.99;63.91;102581.91;5075737;28;20487;-81
2024/01/29 03:36:14;;;;;;;0.20;0.20;;;;;;;4.97;64.11;102580.94;5072386;28;20051;-79
2024/01/29 03:38:40;;;;;;;0.30;0.30;;;;;;;4.95;63.73;102574.78;5075526;28;20027;-79
2024/01/29 03:41:06;;;;;;;0.20;0.20;;;;;;;4.92;64.08;102578.19;5076108;28;20394;-78
2024/01/29 03:43:32;;;;;;;0.20;0.20;;;;;;;4.90;63.93;102566.75;5076767;28;20024;-79
2024/01/29 03:45:59;;;;;;;0.10;0.10;;;;;;;4.90;64.06;102565.81;5075182;28;20029;-79
2024/01/29 03:48:26;;;;;;;0.13;0.13;;;;;;;4.87;63.96;102556.13;5073578;28;20064;-79
2024/01/29 03:50:52;;;;;;;0.20;0.20;;;;;;;4.82;64.69;102532.38;5071170;28;20115;-79
2024/01/29 03:53:18;;;;;;;0.80;0.50;;;;;;;4.81;64.80;102546.34;5074367;28;20055;-79
2024/01/29 03:55:44;;;;;;;0.10;0.10;;;;;;;4.82;65.25;102556.00;5074883;28;20037;-79
2024/01/29 03:58:11;;;;;;;0.38;0.38;;;;;;;4.85;65.14;102571.84;5074976;28;20033;-79
2024/01/29 04:00:38;;;;;;;0.10;0.10;;;;;;;4.89;64.97;102582.47;5074466;28;20032;-79
2024/01/29 04:03:06;;;;;;;0.10;0.10;;;;;;;4.96;65.01;102579.16;5073635;28;20025;-78
2024/01/29 04:05:32;;;;;;;0.20;0.20;;;;;;;5.03;65.02;102575.88;5074026;28;20148;-78
2024/01/29 04:07:59;;;;;;;0.20;0.20;;;;;;;5.02;65.63;102575.00;5075745;28;20032;-78
2024/01/29 04:10:25;;;;;;;6.32;2.75;;;;;;;5.06;65.53;102576.00;5072667;28;20033;-78
2024/01/29 04:12:51;;;;;;;0.10;0.10;;;;;;;5.07;65.66;102572.53;5081380;28;20630;-79
2024/01/29 04:15:18;;;;;;;0.20;0.20;;;;;;;5.09;65.40;102569.94;5080387;28;20076;-79
2024/01/29 04:17:44;;;;;;;0.20;0.20;;;;;;;5.11;65.21;102571.75;5078484;28;20025;-78
2024/01/29 04:20:10;;;;;;;0.32;0.32;;;;;;;5.13;65.03;102571.81;5084112;28;20099;-78
2024/01/29 04:22:36;;;;;;;0.20;0.20;;;;;;;5.10;65.11;102567.34;5078568;28;20503;-78
2024/01/29 04:25:06;;;;;;;0.73;0.73;;;;;;;5.11;64.90;102566.50;5079822;28;20101;-79
2024/01/29 04:27:32;;;;;;;0.10;0.10;;;;;;;5.10;64.76;102559.47;5080530;28;20048;-79
2024/01/29 04:30:00;;;;;;;0.10;0.10;;;;;;;5.07;64.80;102562.00;5086032;28;20037;-78
2024/01/29 04:32:26;;;;;;;0.35;0.35;;;;;;;5.06;64.99;102560.22;5080311;28;20032;-79
2024/01/29 04:34:52;;;;;;;0.10;0.10;;;;;;;4.99;65.45;102558.25;5081126;28;20036;-78
2024/01/29 04:37:18;;;;;;;0.10;0.10;;;;;;;5.00;65.11;102570.53;5080074;28;20027;-79
2024/01/29 04:39:44;;;;;;;0.10;0.10;;;;;;;4.94;65.69;102571.22;5081313;28;20067;-78
2024/01/29 04:42:12;;;;;;;0.17;0.17;;;;;;;4.94;65.56;102559.84;5080207;28;20039;-78
2024/01/29 04:44:38;;;;;;;0.10;0.10;;;;;;;4.95;65.51;102564.25;5077345;28;20115;-78
2024/01/29 04:47:05;;;;;;;0.20;0.20;;;;;;;4.95;65.61;102561.63;5074180;28;20033;-79
2024/01/29 04:49:31;;;;;;;0.20;0.20;;;;;;;4.95;65.43;102553.75;5080824;28;20043;-79
2024/01/29 04:51:57;;;;;;;0.10;0.10;;;;;;;4.94;65.40;102562.47;5081027;28;20064;-79
2024/01/29 04:54:23;;;;;;;0.10;0.10;;;;;;;4.94;65.54;102562.47;5081004;28;20070;-79
2024/01/29 04:56:49;;;;;;;0.15;0.15;;;;;;;4.95;65.31;102564.25;5081888;28;20455;-79
2024/01/29 04:59:15;;;;;;;0.32;0.32;;;;;;;4.95;65.40;102572.16;5074744;28;20036;-78
2024/01/29 05:01:41;;;;;;;0.10;0.10;;;;;;;4.97;65.24;102579.22;5071196;28;20033;-78
2024/01/29 05:04:08;;;;;;;0.10;0.10;;;;;;;4.97;65.23;102573.97;5077872;28;20038;-78
2024/01/29 05:06:34;;;;;;;0.20;0.20;;;;;;;4.97;65.42;102576.59;5073227;28;20067;-78
2024/01/29 05:09:01;;;;;;;0.10;0.10;;;;;;;4.97;65.51;102575.69;5078058;28;20044;-78
2024/01/29 05:11:28;;;;;;;0.13;0.13;;;;;;;4.98;65.38;102572.22;5081489;28;20495;-79
2024/01/29 05:13:54;;;;;;;0.20;0.20;;;;;;;4.98;65.31;102578.34;5081102;28;20029;-79
2024/01/29 05:16:20;;;;;;;0.15;0.15;;;;;;;4.98;65.49;102561.72;5080125;28;20028;-79
2024/01/29 05:18:47;;;;;;;0.10;0.10;;;;;;;4.94;66.16;102554.59;5078576;28;20032;-79
2024/01/29 05:21:14;;;;;;;0.10;0.10;;;;;;;4.93;66.21;102564.19;5081868;28;20035;-78
2024/01/29 05:23:40;;;;;;;0.10;0.10;;;;;;;4.98;66.22;102559.97;5079500;28;20078;-78
2024/01/29 05:26:06;;;;;;;0.10;0.10;;;;;;;4.98;66.70;102545.97;5080838;28;20025;-78
2024/01/29 05:28:32;;;;;;;0.25;0.25;;;;;;;5.01;66.16;102548.69;5077898;28;20074;-79
2024/01/29 05:30:58;;;;;;;1.42;1.40;;;;;;;5.03;66.01;102554.88;5078582;28;20040;-79
2024/01/29 05:33:25;;;;;;;0.20;0.20;;;;;;;5.04;66.00;102555.78;5078091;28;20028;-78
2024/01/29 05:35:51;;;;;;;0.20;0.20;;;;;;;5.01;66.03;102562.72;5077832;28;20047;-78
2024/01/29 05:38:17;;;;;;;0.15;0.15;;;;;;;5.00;66.51;102562.66;5082091;28;20107;-78
2024/01/29 05:40:43;;;;;;;0.13;0.13;;;;;;;5.00;66.47;102568.78;5080958;28;20036;-78
2024/01/29 05:43:09;;;;;;;0.10;0.10;;;;;;;5.01;66.36;102577.59;5081281;28;20395;-78
2024/01/29 05:45:35;;;;;;;0.20;0.20;;;;;;;5.01;66.07;102577.59;5078867;28;20060;-79
2024/01/29 05:48:04;;;;;;;0.20;0.20;;;;;;;4.98;66.84;102588.00;5079257;28;20078;-79
2024/01/29 05:50:30;;;;;;;1.85;1.75;;;;;;;4.99;67.29;102574.00;5079595;28;20386;-79
2024/01/29 05:52:56;;;;;;;0.30;0.30;;;;;;;5.04;67.09;102577.66;5076907;28;20039;-78
2024/01/29 05:55:22;;;;;;;0.20;0.20;;;;;;;5.04;66.70;102588.19;5080640;28;20020;-79
2024/01/29 05:57:49;;;;;;;0.30;0.30;;;;;;;5.07;66.65;102593.53;5078825;28;20376;-78
2024/01/29 06:00:16;;;;;;;0.10;0.10;;;;;;;5.10;66.88;102598.88;5075537;28;20085;-78
2024/01/29 06:02:43;;;;;;;0.20;0.20;;;;;;;5.08;67.54;102602.31;5075148;28;20104;-78
2024/01/29 06:05:11;;;;;;;0.20;0.20;;;;;;;5.12;67.36;102597.19;5082959;28;20381;-78
2024/01/29 06:07:38;;;;;;;0.10;0.10;;;;;;;5.12;67.37;102597.19;5077484;28;20029;-78
2024/01/29 06:10:07;;;;;;;0.30;0.30;;;;;;;5.12;67.39;102602.47;5078839;28;20411;-78
2024/01/29 06:12:33;;;;;;;0.10;0.10;;;;;;;5.14;67.15;102594.63;5075587;28;20044;-78
2024/01/29 06:14:59;;;;;;;0.20;0.20;;;;;;;5.16;67.08;102593.81;5078823;28;20044;-78
2024/01/29 06:17:25;;;;;;;0.20;0.20;;;;;;;5.17;66.90;102598.22;5076112;28;20112;-79
2024/01/29 06:19:51;;;;;;;0.13;0.13;;;;;;;5.16;67.14;102593.81;5078148;28;20032;-79
2024/01/29 06:22:18;;;;;;;0.15;0.15;;;;;;;5.14;66.97;102592.88;5082205;28;20024;-79
2024/01/29 06:24:44;;;;;;;0.20;0.20;;;;;;;5.12;66.74;102589.31;5068881;28;20051;-79
2024/01/29 06:27:10;;;;;;;0.32;0.32;;;;;;;5.11;66.53;102589.25;5081706;28;20120;-78
2024/01/29 06:29:36;;;;;;;0.10;0.10;;;;;;;5.07;66.67;102588.28;5072604;28;20040;-77
2024/01/29 06:32:03;;;;;;;0.20;0.20;;;;;;;5.04;66.58;102582.03;5078749;28;20037;-78
2024/01/29 06:34:29;;;;;;;0.82;0.82;;;;;;;5.02;66.52;102584.59;5083976;28;20121;-79
2024/01/29 06:36:55;;;;;;;0.10;0.10;;;;;;;5.01;66.57;102593.34;5083144;28;20028;-80
2024/01/29 06:39:21;;;;;;;0.10;0.10;;;;;;;4.97;66.93;102591.44;5081661;28;20020;-78
2024/01/29 06:41:47;;;;;;;0.10;0.10;;;;;;;4.99;66.72;102595.03;5084860;28;20029;-80
2024/01/29 06:44:13;;;;;;;0.20;0.20;;;;;;;4.98;67.02;102594.13;5088873;28;20065;-79
2024/01/29 06:46:39;;;;;;;0.10;0.10;;;;;;;4.99;66.88;102600.28;5084831;28;20033;-80
2024/01/29 06:49:07;;;;;;;0.15;0.15;;;;;;;5.00;66.86;102602.06;5083800;28;20040;-79
2024/01/29 06:51:33;;;;;;;0.10;0.10;;;;;;;4.98;66.81;102606.38;5084634;28;20032;-77
2024/01/29 06:54:03;;;;;;;0.17;0.17;;;;;;;4.97;66.71;102604.59;5088016;28;20032;-78
2024/01/29 06:56:29;;;;;;;0.10;0.10;;;;;;;4.95;66.95;102601.91;5094134;28;20139;-79
2024/01/29 06:58:56;;;;;;;0.10;0.10;;;;;;;4.95;66.96;102604.53;5092887;28;20131;-83
2024/01/29 07:01:22;;;;;;;0.10;0.10;;;;;;;4.98;67.44;102603.75;5087222;28;20033;-78
2024/01/29 07:03:48;;;;;;;0.10;0.10;;;;;;;5.01;67.83;102603.88;5082739;28;20071;-79
2024/01/29 07:06:14;;;;;;;0.10;0.10;;;;;;;5.04;67.71;102619.69;5089013;28;20028;-79
2024/01/29 07:08:40;;;;;;;0.10;0.10;;;;;;;5.08;67.66;102616.31;5086537;28;20035;-78
2024/01/29 07:11:06;;;;;;;0.20;0.20;;;;;;;5.11;67.78;102618.16;5074978;28;20045;-79
2024/01/29 07:13:32;;;;;;;0.20;0.20;;;;;;;5.12;68.28;102615.59;5073524;28;20040;-79
2024/01/29 07:15:59;;;;;;;0.10;0.10;;;;;;;5.15;68.46;102613.03;5084678;28;20112;-79
2024/01/29 07:18:25;;;;;;;0.10;0.10;;;;;;;5.18;68.24;102626.28;5084242;28;20027;-80
2024/01/29 07:20:51;;;;;;;0.10;0.10;;;;;;;5.22;68.03;102626.38;5080696;28;20121;-79
2024/01/29 07:23:17;;;;;;;0.15;0.15;;;;;;;5.24;68.07;102633.47;5079984;28;20390;-79
2024/01/29 07:25:44;;;;;;;0.10;0.10;;;;;;;5.26;67.68;102628.25;5083693;28;20035;-79
2024/01/29 07:28:10;;;;;;;0.10;0.10;;;;;;;5.26;68.38;102638.75;5075133;28;20056;-79
2024/01/29 07:30:36;;;;;;;0.10;0.10;;;;;;;5.29;68.63;102646.75;5083966;28;20580;-80
2024/01/29 07:33:03;;;;;;;0.90;0.90;;;;;;;5.32;69.01;102644.19;5079351;28;20028;-79
2024/01/29 07:35:29;;;;;;;0.20;0.20;;;;;;;5.40;68.34;102641.84;5083656;28;20087;-79
2024/01/29 07:37:56;;;;;;;2.60;1.25;;;;;;;5.40;68.76;102640.09;5079946;28;20526;-80
2024/01/29 07:40:22;;;;;;;0.15;0.15;;;;;;;5.42;69.36;102632.25;5081328;28;20032;-80
2024/01/29 07:42:49;;;;;;;0.20;0.20;;;;;;;5.50;68.83;102639.50;5082712;28;20391;-79
2024/01/29 07:45:15;;;;;;;0.40;0.40;;;;;;;5.52;68.85;102650.09;5085394;28;20073;-79
2024/01/29 07:47:42;;;;;;;1.00;1.00;;;;;;;5.56;68.86;102646.69;5083017;28;20036;-81
2024/01/29 07:50:08;;;;;;;0.10;0.10;;;;;;;5.62;68.31;102653.88;5084430;28;20108;-80
2024/01/29 07:52:34;;;;;;;0.13;0.13;;;;;;;5.64;68.56;102655.69;5076111;28;20090;-80
2024/01/29 07:55:00;;;;;;;0.30;0.30;;;;;;;5.67;68.50;102655.78;5083139;28;20072;-79
2024/01/29 07:57:27;;;;;;;0.25;0.25;;;;;;;5.71;68.10;102655.88;5083291;28;20019;-79
2024/01/29 07:59:53;;;;;;;0.13;0.13;;;;;;;5.72;68.36;102655.03;5081577;28;20496;-78
2024/01/29 08:02:19;;;;;;;0.10;0.10;;;;;;;5.74;67.93;102662.13;5082359;28;20028;-78
2024/01/29 08:04:45;;;;;;;0.63;0.45;;;;;;;5.74;68.23;102662.13;5080195;28;20035;-78
2024/01/29 08:07:12;;;;;;;0.20;0.20;;;;;;;5.77;67.87;102667.47;5083953;28;20116;-79
2024/01/29 08:09:38;;;;;;;0.10;0.10;;;;;;;5.80;67.63;102662.28;5081321;28;20476;-79
2024/01/29 08:12:05;;;;;;;0.10;0.10;;;;;;;5.81;67.80;102657.94;5082649;28;20028;-79
2024/01/29 08:14:31;;;;;;;0.10;0.10;;;;;;;5.83;67.82;102665.03;5081701;28;20036;-78
2024/01/29 08:16:57;;;;;;;0.10;0.10;;;;;;;5.85;68.24;102664.19;5079776;28;20033;-78
2024/01/29 08:19:23;;;;;;;0.10;0.10;;;;;;;5.88;68.20;102666.88;5080693;28;20030;-78
2024/01/29 08:21:50;;;;;;;0.10;0.10;;;;;;;5.94;67.92;102670.63;5079512;28;20028;-78
2024/01/29 08:24:16;;;;;;;0.20;0.20;;;;;;;5.96;68.10;102668.91;5080099;28;20039;-78
2024/01/29 08:26:42;;;;;;;0.10;0.10;;;;;;;5.99;67.87;102669.03;5079231;28;20036;-78
2024/01/29 08:29:08;;;;;;;0.10;0.10;;;;;;;5.99;68.43;102683.91;5081475;28;20050;-78
2024/01/29 08:31:34;;;;;;;0.10;0.10;;;;;;;5.97;68.76;102675.06;5080074;28;20111;-78
2024/01/29 08:34:02;;;;;;;0.10;0.10;;;;;;;6.06;68.33;102675.34;5080825;28;20483;-78
2024/01/29 08:36:29;;;;;;;0.10;0.10;;;;;;;6.07;68.10;102676.22;5078749;28;20027;-78
2024/01/29 08:38:55;;;;;;;0.10;0.10;;;;;;;6.15;68.25;102664.19;5073881;28;20067;-77
2024/01/29 08:41:21;;;;;;;0.10;0.10;;;;;;;6.20;68.21;102666.94;5077792;28;20028;-78
2024/01/29 08:43:48;;;;;;;0.10;0.10;;;;;;;6.20;68.64;102666.94;5078694;28;20092;-79
2024/01/29 08:46:14;;;;;;;0.10;0.10;;;;;;;6.26;68.55;102659.22;5082734;28;20039;-78
2024/01/29 08:48:40;;;;;;;0.10;0.10;;;;;;;6.28;68.54;102671.56;5080512;28;20097;-78
2024/01/29 08:51:07;;;;;;;0.10;0.10;;;;;;;6.34;68.63;102667.31;5081946;28;20032;-79
2024/01/29 08:53:33;;;;;;;0.10;0.10;;;;;;;6.38;68.46;102667.47;5079371;28;20039;-79
2024/01/29 08:56:00;;;;;;;0.20;0.20;;;;;;;6.46;68.20;102671.16;5080901;28;20035;-78
2024/01/29 08:58:26;;;;;;;0.20;0.20;;;;;;;6.50;68.53;102668.63;5075609;28;20016;-78
2024/01/29 09:00:54;;;;;;;1.23;1.15;;;;;;;6.54;68.85;102667.84;5078850;28;20491;-78
2024/01/29 09:03:20;;;;;;;0.20;0.20;;;;;;;6.59;68.73;102674.13;5077418;28;20051;-78
2024/01/29 09:05:48;;;;;;;0.20;0.20;;;;;;;6.62;68.27;102671.59;5079709;28;20042;-83
2024/01/29 09:08:15;;;;;;;1.92;1.75;;;;;;;6.64;68.13;102672.50;5084146;28;20116;-79
2024/01/29 09:10:41;;;;;;;0.13;0.13;;;;;;;6.66;68.52;102667.28;5080163;28;20028;-78
2024/01/29 09:13:08;;;;;;;1.20;1.20;;;;;;;6.69;67.72;102673.53;5078510;28;20055;-77
2024/01/29 09:15:34;;;;;;;0.10;0.10;;;;;;;6.69;68.13;102670.91;5078143;28;20032;-78
2024/01/29 09:18:00;;;;;;;3.25;1.45;;;;;;;6.70;68.06;102672.66;5079589;28;20100;-78
2024/01/29 09:20:27;;;;;;;0.17;0.17;;;;;;;6.70;68.43;102663.88;5080520;28;20028;-78
2024/01/29 09:22:54;;;;;;;0.10;0.10;;;;;;;6.69;68.48;102663.00;5079466;28;20029;-78
2024/01/29 09:25:20;;;;;;;0.10;0.10;;;;;;;6.73;68.43;102672.75;5081722;28;20024;-78
2024/01/29 09:27:46;;;;;;;0.20;0.20;;;;;;;6.80;67.93;102679.97;5079480;28;20024;-78
2024/01/29 09:30:12;;;;;;;0.57;0.57;;;;;;;6.87;68.25;102682.75;5081929;28;20052;-79
2024/01/29 09:32:39;;;;;;;1.85;1.20;;;;;;;6.93;68.11;102682.91;5077325;28;20029;-79
2024/01/29 09:35:05;;;;;;;0.15;0.15;;;;;;;7.00;67.83;102678.66;5082431;28;20044;-79
2024/01/29 09:37:31;;;;;;;1.27;1.08;;;;;;;7.08;67.77;102691.16;5081190;28;20024;-80
2024/01/29 09:39:58;;;;;;;0.10;0.10;;;;;;;7.11;68.09;102687.72;5078635;28;20032;-79
2024/01/29 09:42:27;;;;;;;0.17;0.17;;;;;;;7.23;68.03;102689.78;5078442;28;20024;-80
2024/01/29 09:44:55;;;;;;;0.88;0.88;;;;;;;7.23;68.62;102681.84;5080138;28;20464;-80
2024/01/29 09:47:22;;;;;;;0.10;0.10;;;;;;;7.28;68.60;102701.31;5075849;28;20037;-80
2024/01/29 09:49:48;;;;;;;0.10;0.10;;;;;;;7.38;68.46;102702.41;5080192;28;20044;-80
2024/01/29 09:52:16;;;;;;;0.10;0.10;;;;;;;7.47;67.96;102702.63;5078848;28;20032;-80
2024/01/29 09:54:44;;;;;;;0.10;0.10;;;;;;;7.47;68.49;102701.75;5077588;28;20040;-80
2024/01/29 09:57:14;;;;;;;0.10;0.10;;;;;;;7.58;68.26;102702.88;5080408;28;20048;-80
2024/01/29 09:59:41;;;;;;;0.95;0.95;;;;;;;7.67;68.44;102705.69;5078178;28;20086;-80
2024/01/29 10:02:09;;;;;;;0.13;0.13;;;;;;;7.77;68.46;102697.13;5081503;28;20021;-80
2024/01/29 10:04:35;;;;;;;0.20;0.20;;;;;;;7.86;67.96;102698.19;5070197;28;20064;-80
2024/01/29 10:07:03;;;;;;;0.20;0.20;;;;;;;7.95;67.62;102695.75;5078933;28;20068;-80
2024/01/29 10:09:30;;;;;;;0.10;0.10;;;;;;;8.07;67.86;102698.66;5080766;28;20032;-80
2024/01/29 10:11:56;;;;;;;1.30;1.30;;;;;;;8.18;68.01;102703.25;5081408;28;20674;-80
2024/01/29 10:14:22;;;;;;;0.10;0.10;;;;;;;8.30;67.86;102708.75;5083970;28;20031;-79
2024/01/29 10:16:50;;;;;;;2.65;0.85;;;;;;;8.35;67.85;102707.09;5083133;28;20089;-79
2024/01/29 10:19:17;;;;;;;0.10;0.10;;;;;;;8.53;67.53;102708.34;5084004;28;20035;-80
2024/01/29 10:21:43;;;;;;;0.20;0.20;;;;;;;8.63;67.91;102697.06;5080870;28;20040;-80
2024/01/29 10:24:14;;;;;;;0.25;0.25;;;;;;;8.78;67.77;102706.13;5081317;28;20101;-80
2024/01/29 10:26:41;;;;;;;1.27;1.20;;;;;;;8.89;67.60;102716.03;5076805;28;20454;-79
2024/01/29 10:29:09;;;;;;;0.20;0.20;;;;;;;9.02;67.63;102721.50;5073031;28;20032;-80
2024/01/29 10:31:36;;;;;;;0.95;0.95;;;;;;;9.13;67.04;102717.28;5070127;28;20036;-80
2024/01/29 10:34:04;;;;;;;4.30;3.92;;;;;;;9.25;67.32;102715.72;5076655;28;20028;-79
2024/01/29 10:36:30;;;;;;;1.92;1.77;;;;;;;9.35;66.93;102721.16;5078399;28;20480;-80
2024/01/29 10:39:00;;;;;;;0.82;0.82;;;;;;;9.44;66.78;102719.53;5076809;28;20025;-80
2024/01/29 10:41:29;;;;;;;4.78;2.30;;;;;;;9.55;66.72;102720.59;5076366;28;20103;-79
2024/01/29 10:43:57;;;;;;;2.90;1.27;;;;;;;9.67;66.22;102717.19;5075466;28;20033;-79
2024/01/29 10:46:24;;;;;;;0.52;0.52;;;;;;;9.79;66.30;102725.31;5078837;28;20031;-79
2024/01/29 10:48:53;;;;;;;0.90;0.90;;;;;;;9.86;66.07;102723.66;5081059;28;20040;-78
2024/01/29 10:51:21;;;;;;;0.10;0.10;;;;;;;9.95;65.85;102731.72;5080959;28;20028;-79
2024/01/29 10:53:48;;;;;;;1.20;1.20;;;;;;;10.08;65.85;102723.91;5074345;28;20043;-79
2024/01/29 10:56:16;;;;;;;1.02;0.75;;;;;;;10.20;65.32;102730.28;5080880;28;20044;-79
2024/01/29 10:58:44;;;;;;;0.35;0.35;;;;;;;10.25;64.77;102729.44;5078811;28;20020;-79
2024/01/29 11:01:11;;;;;;;1.60;1.58;;;;;;;10.35;63.75;102713.66;5081931;28;20086;-79
2024/01/29 11:03:38;;;;;;;0.30;0.30;;;;;;;10.48;64.41;102719.09;5080634;28;20107;-80
2024/01/29 11:06:20;;;;;;;0.45;0.45;;;;;;;10.66;63.64;102708.69;5082115;28;20032;-80
2024/01/29 11:08:51;;;;;;;0.45;0.45;;;;;;;10.67;63.18;102704.28;5080412;28;20459;-79
2024/01/29 11:11:18;;;;;;;0.67;0.67;;;;;;;10.82;63.17;102698.25;5083394;28;20032;-79
2024/01/29 11:13:44;;;;;;;0.10;0.10;;;;;;;10.83;62.44;102700.91;5081091;28;20108;-79
2024/01/29 11:16:11;;;;;;;0.85;0.85;;;;;;;10.97;62.98;102695.69;5084320;28;20086;-82
2024/01/29 11:18:37;;;;;;;0.15;0.15;;;;;;;11.06;62.48;102686.06;5083125;28;20033;-84
2024/01/29 11:21:08;;;;;;;0.30;0.30;;;;;;;11.16;62.69;102687.88;5081096;28;20028;-82
2024/01/29 11:23:43;;;;;;;0.50;0.50;;;;;;;11.21;61.60;102690.59;5074671;28;20036;-81
2024/01/29 11:26:14;;;;;;;0.65;0.65;;;;;;;11.28;61.71;102695.94;5082763;28;20039;-81
2024/01/29 11:28:40;;;;;;;0.10;0.10;;;;;;;11.38;61.75;102688.06;5069325;28;20488;-82
2024/01/29 11:31:11;;;;;;;0.10;0.10;;;;;;;11.46;62.08;102688.97;5080066;28;20039;-80
2024/01/29 11:33:37;;;;;;;1.33;1.25;;;;;;;11.52;61.71;102690.78;5075664;28;20036;-81